Terminal Aerodrome Forecast
Issued by NWS

Home | Current Version | Previous Version | Text Only | Print | Product List | Glossary On
Versions: 1 2 3 4 5 6 7 8 9 10 11 12 13 14 15 16 17 18 19 20
373
FTAK31 PAJN 262100 AAA
TAFAYA
TAF AMD
PAYA 262100Z 2621/2718 24007KT P6SM BKN028 BKN040
     FM270600 00000KT P6SM BKN080
      AMD LTD TO CLD VIS AND WIND 2701/2709=

USA.gov is the U.S. government's official web portal to all federal, state and local government web resources and services.